Terminal Aerodrome Forecast
Issued by NWS

Home | Current Version | Previous Version | Text Only | Print | Product List | Glossary On
Versions: 1 2 3 4 5 6 7 8 9 10 11 12 13 14 15 16 17
386
FTUS43 KILX 111127
TAFCMI
TAF
KCMI 111127Z 1112/1212 36007KT P6SM SCT250
     FM120200 VRB03KT P6SM BKN080
     FM120700 VRB04KT 5SM -SN OVC035
     FM120900 20006KT 2SM -SN OVC012=

USA.gov is the U.S. government's official web portal to all federal, state and local government web resources and services.